Home > Products > Valid Products > TAF

000
FTUS42 KTAE 260800 AAA
TAFTLH
TAF AMD
KTLH 260808Z 2608/2706 36005KT P6SM -RA SCT007 BKN060 OVC080
      TEMPO 2608/2610 5SM RA BR BKN007
     FM261000 32009KT 6SM -RA BR SCT015 BKN050
      TEMPO 2610/2613 5SM BR BKN015
     FM261300 31011KT P6SM SKC=



000
FTUS42 KTAE 260500
TAFDHN
TAF
KDHN 260521Z 2606/2706 31008KT P6SM -RA SCT070 OVC100
     FM260900 31010KT P6SM SKC
     FM262000 28008KT P6SM SKC=



000
FTUS42 KTAE 260500
TAFABY
TAF
KABY 260521Z 2606/2706 33009KT 6SM -RA BR SCT025 OVC050
      TEMPO 2606/2610 5SM -RA BR SCT015 BKN025
     FM261000 32007KT 5SM BR SCT015 BKN050
     FM261400 30010KT P6SM SKC
     FM262200 23005KT P6SM SKC=



000
FTUS42 KTAE 260500
TAFTLH
TAF
KTLH 260521Z 2606/2706 33011KT P6SM -RA OVC025
     FM261000 32009KT 6SM -RA BR SCT015 BKN050
      TEMPO 2610/2613 5SM BR BKN015
     FM261300 31011KT P6SM SKC=



000
FTUS42 KTAE 260500
TAFVLD
TAF
KVLD 260521Z 2606/2706 35007KT 6SM -RA BR SCT008 OVC012
      TEMPO 2607/2611 5SM -RA BR BKN008
     FM261100 30005KT 6SM -RA BR SCT008 BKN050
      TEMPO 2611/2613 5SM BR BKN008
     FM261400 31007KT P6SM SKC=



000
FTUS42 KTAE 260400 AAA
TAFABY
TAF AMD
KABY 260413Z 2604/2624 34004KT 5SM -RA BR SCT025 BKN040 OVC090
     FM260900 33008KT P6SM VCSH OVC050
     FM261400 30010KT P6SM SCT250=



000
FTUS42 KTAE 260200 AAA
TAFTLH
TAF AMD
KTLH 260243Z 2603/2624 34009KT 5SM -RA BR SCT007 BKN016 OVC030
     FM261000 34012KT P6SM VCSH OVC030
     FM261400 32009KT P6SM SCT250=



000
FTUS42 KTAE 252300
TAFABY
TAF
KABY 252332Z 2600/2624 34004KT P6SM -RA BKN050 OVC090
     FM260900 33008KT P6SM VCSH OVC050
     FM261400 30010KT P6SM SCT250=



000
FTUS42 KTAE 252300
TAFDHN
TAF
KDHN 252332Z 2600/2624 05006KT P6SM -RA OVC040
     FM260700 35010KT P6SM VCSH OVC050
     FM261200 34007KT P6SM SCT150=



000
FTUS42 KTAE 252300
TAFTLH
TAF
KTLH 252332Z 2600/2624 34009KT P6SM -RA OVC005
     FM261000 34012KT P6SM VCSH OVC030
     FM261400 32009KT P6SM SCT250=



000
FTUS42 KTAE 252300
TAFVLD
TAF
KVLD 252332Z 2600/2624 34004KT 4SM -RA BR BKN008 OVC025
     FM260400 34007KT P6SM -RA SCT025 BKN050
     FM261000 36007KT P6SM VCSH FEW025 OVC040
     FM261400 31007KT P6SM SCT250=



000
FTUS42 KTAE 251700 AAA
TAFVLD
TAF AMD
KVLD 251732Z 2518/2618 02005KT P6SM SHRA BKN004 OVC010
     FM252000 03006KT P6SM RA OVC012
     FM260400 36009KT P6SM -RA FEW015 OVC025
     FM261000 36007KT P6SM VCSH FEW025 OVC040=



000
FTUS42 KTAE 251700
TAFVLD
TAF
KVLD 251720Z 2518/2618 02005KT P6SM SHRA BKN012 OVC040
     FM252000 03006KT P6SM RA OVC012
     FM260400 36009KT P6SM -RA FEW015 OVC025
     FM261000 36007KT P6SM VCSH FEW025 OVC040=



000
FTUS42 KTAE 251700
TAFABY
TAF
KABY 251720Z 2518/2618 36006KT 5SM RA BR BKN025 OVC040
     FM260100 35008KT P6SM -RA FEW025 OVC040
     FM260800 33008KT P6SM VCSH OVC050
     FM261200 33008KT P6SM SCT250=



000
FTUS42 KTAE 251700
TAFTLH
TAF
KTLH 251720Z 2518/2618 01007KT 5SM RA BR OVC007
     FM260100 35010KT P6SM -RA OVC025
     FM260800 34008KT P6SM VCSH OVC050
     FM261500 32009KT P6SM SCT250=



000
FTUS42 KTAE 251700
TAFDHN
TAF
KDHN 251720Z 2518/2618 01007KT P6SM VCSH BKN040 OVC100
     FM252000 01007KT 6SM -RA OVC040
     FM260200 35009KT P6SM VCSH OVC050
     FM260600 34007KT P6SM SCT050 BKN150=



000
FTUS42 KTAE 251100
TAFVLD
TAF
KVLD 251131Z 2512/2612 00000KT 4SM SHRA BR VCTS OVC006CB
     FM251500 02005KT P6SM SHRA BKN012 OVC040
     FM252000 03006KT P6SM RA OVC012
     FM260400 36009KT P6SM -RA FEW015 OVC025
     FM261000 36007KT P6SM VCSH FEW025 OVC040=



000
FTUS42 KTAE 251100
TAFDHN
TAF
KDHN 251131Z 2512/2612 01007KT P6SM VCSH BKN040 OVC100
     FM252000 01007KT 6SM -RA OVC040
     FM260200 35009KT P6SM VCSH OVC050
     FM260600 34007KT P6SM SCT050 BKN150=



000
FTUS42 KTAE 251100
TAFABY
TAF
KABY 251131Z 2512/2612 33005KT 5SM RA BR BKN040 OVC100
     FM251400 02006KT 5SM RA BR BKN025 OVC040
     FM260100 35008KT P6SM -RA FEW025 OVC040
     FM260800 33008KT P6SM VCSH OVC050=



000
FTUS42 KTAE 251100
TAFTLH
TAF
KTLH 251131Z 2512/2612 VRB03KT P6SM SHRA OVC006
     FM251500 01007KT 5SM RA BR OVC012
     FM260100 35010KT P6SM -RA OVC025
     FM260800 34008KT P6SM VCSH OVC050=



000
FTUS42 KTAE 250800 AAB
TAFVLD
TAF AMD
KVLD 250805Z 2508/2606 02005KT 4SM RA BR VCTS OVC006CB
     FM251600 02005KT 5SM RA BR OVC012=



000
FTUS42 KTAE 250800 AAA
TAFABY
TAF AMD
KABY 250805Z 2508/2606 33007KT 5SM RA VCTS SCT020 OVC040CB
     FM251400 01007KT 6SM RA FEW010 OVC025=



000
FTUS42 KTAE 250700 AAA
TAFTLH
TAF AMD
KTLH 250737Z 2508/2606 VRB05KT 4SM RA VCTS OVC007CB
     FM251600 01007KT 5SM RA BR OVC012=



000
FTUS42 KTAE 250700 AAA
TAFVLD
TAF AMD
KVLD 250709Z 2507/2606 02005KT 4SM RA BR OVC006
     FM251600 02005KT 5SM RA BR OVC012=



000
FTUS42 KTAE 250500
TAFDHN
TAF
KDHN 250535Z 2506/2606 35009KT P6SM SCT025 OVC100
      TEMPO 2506/2508 BKN025
     FM251700 01009KT 6SM -RA SCT020 OVC040=



000
FTUS42 KTAE 250500
TAFVLD
TAF
KVLD 250535Z 2506/2606 00000KT 6SM BR VCSH OVC060
     FM250900 02005KT 4SM RA BR OVC006
     FM251600 02005KT 5SM RA BR OVC012=



000
FTUS42 KTAE 250500
TAFABY
TAF
KABY 250535Z 2506/2606 VRB05KT P6SM VCSH SCT020 OVC100
     FM251100 01007KT 6SM RA SCT020 OVC040
     FM251400 01007KT 6SM RA FEW010 OVC025=



000
FTUS42 KTAE 250500
TAFTLH
TAF
KTLH 250535Z 2506/2606 00000KT P6SM -SHRA OVC060
     FM250700 VRB05KT 4SM RA BR OVC007
     FM251600 01007KT 5SM RA BR OVC012=



000
FTUS42 KTAE 250200 AAB
TAFTLH
TAF AMD
KTLH 250253Z 2503/2524 16005KT P6SM -RA OVC035
     FM250700 34007KT 4SM RA BR OVC006
     FM251400 01008KT 5SM RA BR OVC008=



000
FTUS42 KTAE 250200 AAA
TAFVLD
TAF AMD
KVLD 250251Z 2503/2524 VRB02KT P6SM -RA OVC050
     FM251000 01005KT 3SM RA BR OVC003
     FM251500 02004KT 6SM RA BR OVC007=



000
FTUS42 KTAE 250100 AAA
TAFTLH
TAF AMD
KTLH 250154Z 2502/2524 16005KT 5SM -TSRA BR OVC035CB
     FM250700 34007KT 4SM RA BR OVC006
     FM251400 01008KT 5SM RA BR OVC008=



000
FTUS42 KTAE 242300
TAFABY
TAF
KABY 242320Z 2500/2524 21007KT 6SM -RA BR SCT020 BKN110
     FM250700 33008KT P6SM VCSH OVC020
     FM251000 36010KT 4SM -RA OVC008=



000
FTUS42 KTAE 242300
TAFDHN
TAF
KDHN 242320Z 2500/2524 18008KT P6SM SCT025 BKN100
     FM250300 33011KT P6SM OVC050
     FM251500 01009KT 4SM -RA OVC012=



000
FTUS42 KTAE 242300
TAFVLD
TAF
KVLD 242320Z 2500/2524 VRB02KT 4SM TSRA BR BKN012CB OVC050
     FM251000 01005KT 3SM RA BR OVC003
     FM251500 02004KT 6SM RA BR OVC007=



000
FTUS42 KTAE 242300
TAFTLH
TAF
KTLH 242320Z 2500/2524 16005KT 5SM -TSRA BR BKN003 OVC030CB
     FM250700 34007KT 4SM RA BR OVC006
     FM251400 01008KT 5SM RA BR OVC008=



000
FTUS42 KTAE 242100 AAA
TAFVLD
TAF AMD
KVLD 242111Z 2421/2518 21007KT 5SM -SHRA VCTS SCT008 OVC030CB
      TEMPO 2421/2423 2SM TSRA OVC008CB
     FM250000 VRB02KT P6SM OVC012
     FM250800 01005KT 3SM RA BR OVC003=



000
FTUS42 KTAE 242100 AAA
TAFTLH
TAF AMD
KTLH 242106Z 2421/2518 20007KT 5SM -RA BR SCT004 BKN010
     FM242300 VRB04KT P6SM OVC020
     FM250600 34007KT 4SM RA BR OVC006=



000
FTUS42 KTAE 241700
TAFDHN
TAF
KDHN 241727Z 2418/2518 27009KT P6SM SCT025
     FM242100 31007KT P6SM SCT025 BKN080
     FM250300 33011KT P6SM OVC050
     FM251400 VRB03KT 4SM -RA OVC012=



000
FTUS42 KTAE 241700
TAFTLH
TAF
KTLH 241727Z 2418/2518 20007KT 5SM -RA BKN010 OVC020
      TEMPO 2419/2422 4SM -TSRA OVC010CB
     FM242200 VRB04KT P6SM OVC020
     FM250600 34007KT 4SM RA BR OVC006=



000
FTUS42 KTAE 241700
TAFABY
TAF
KABY 241727Z 2418/2518 21007KT P6SM BKN015 BKN080
      TEMPO 2418/2422 4SM -RA BKN010
     FM242200 30006KT P6SM SCT020 OVC060
     FM250700 33008KT P6SM OVC050
     FM251000 36010KT 4SM -RA OVC008=



000
FTUS42 KTAE 241700
TAFVLD
TAF
KVLD 241727Z 2418/2518 21007KT 5SM -SHRA VCTS OVC015CB
      TEMPO 2419/2423 2SM +TSRA OVC008CB
     FM250000 VRB02KT P6SM OVC012
     FM250800 01005KT 3SM RA BR OVC003=



000
FTUS42 KTAE 241400 AAA
TAFTLH
TAF AMD
KTLH 241415Z 2414/2512 19006KT 4SM RA BKN008 OVC012
      TEMPO 2415/2417 VRB20G30KT 2SM +TSRA OVC008CB
     FM241900 22010KT P6SM SHRA VCTS SCT012 BKN020CB
     FM242100 VRB04KT P6SM BKN025
     FM250800 33006KT 3SM RA BR OVC007=



000
FTUS42 KTAE 241200 AAA
TAFDHN
TAF AMD
KDHN 241221Z 2412/2512 VRB03KT 1/4SM FG OVC002
     FM241400 20005KT 5SM BR OVC004
     FM241700 27010KT P6SM BKN015
     FM241900 31007KT P6SM SCT060 BKN150=



000
FTUS42 KTAE 241100 AAA
TAFABY
TAF AMD
KABY 241133Z 2412/2512 21007KT 6SM SHRA VCTS OVC007CB
      TEMPO 2412/2414 OVC004CB
     FM241600 24009KT P6SM BKN025
     FM241900 30006KT P6SM SCT030 BKN100
     FM250700 33006KT P6SM -RA SCT025 BKN035=



000
FTUS42 KTAE 241100
TAFDHN
TAF
KDHN 241120Z 2412/2512 20005KT 5SM BR OVC004
     FM241500 25010KT P6SM FEW008 BKN015
     FM241700 27010KT P6SM BKN025
     FM241900 31007KT P6SM SCT060 BKN150=



000
FTUS42 KTAE 241100
TAFTLH
TAF
KTLH 241120Z 2412/2512 19006KT 6SM BR OVC005
     FM241400 22010KT P6SM SHRA VCTS BKN025CB
     FM242100 VRB04KT P6SM BKN025
     FM250500 33006KT 5SM RA BR OVC007=



000
FTUS42 KTAE 241100
TAFVLD
TAF
KVLD 241120Z 2412/2512 19007KT 4SM BR OVC003
     FM241600 21008KT P6SM SHRA VCTS BKN025CB
     FM250000 VRB02KT P6SM BKN025
     FM250400 01005KT 5SM RA BR OVC003=



000
FTUS42 KTAE 241100
TAFABY
TAF
KABY 241120Z 2412/2512 21007KT 6SM SHRA BR OVC007
     FM241600 24009KT P6SM BKN025
     FM241900 30006KT P6SM SCT030 BKN100
     FM250700 33006KT P6SM -RA SCT025 BKN035=



000
FTUS42 KTAE 240700 AAA
TAFVLD
TAF AMD
KVLD 240711Z 2407/2506 18005KT 5SM BR VCSH OVC002
     FM241000 19007KT 6SM SHRA BR FEW003 BKN007
     FM241600 21010KT P6SM SHRA VCTS BKN025CB
     FM242300 22004KT P6SM SCT040 BKN100=



000
FTUS42 KTAE 240500
TAFTLH
TAF
KTLH 240533Z 2406/2506 17003KT P6SM VCSH FEW007 BKN030
      TEMPO 2407/2408 BKN007
     FM240800 19007KT 6SM SHRA BR SCT003 BKN007
     FM241600 22012KT P6SM SHRA VCTS BKN025CB
     FM242300 VRB04KT P6SM SCT025 BKN040=



000
FTUS42 KTAE 240500
TAFABY
TAF
KABY 240533Z 2406/2506 21007KT 6SM SHRA BR BKN007 OVC030
      TEMPO 2410/2413 BKN003
     FM241600 24010KT P6SM BKN025
     FM241900 27018KT P6SM SCT030 BKN100=



000
FTUS42 KTAE 240500
TAFVLD
TAF
KVLD 240533Z 2406/2506 18005KT 5SM BR VCSH OVC003
     FM241000 19007KT 6SM SHRA BR FEW003 BKN007
     FM241600 21010KT P6SM SHRA VCTS BKN025CB
     FM242300 22004KT P6SM SCT040 BKN100=



000
FTUS42 KTAE 240500
TAFDHN
TAF
KDHN 240533Z 2406/2506 20008KT 6SM SHRA BR OVC004
     FM241400 25010KT P6SM BKN025
     FM241800 28010KT P6SM SCT060 BKN150=



000
FTUS42 KTAE 240400 AAC
TAFVLD
TAF AMD
KVLD 240423Z 2404/2424 19006KT 6SM BR OVC004
     FM241600 23010G15KT P6SM BKN020
     FM241800 26010KT P6SM BKN030 OVC060=



000
FTUS42 KTAE 240400 AAC
TAFVLD
TAF AMD
KVLD 240423Z 2404/2424 19006KT 6SM BR OVC004
     FM241600 23010G15KT P6SM BKN020
     FM241800 26010KT P6SM BKN030 OVC060=



000
FTUS42 KTAE 240100 AAB
TAFVLD
TAF AMD
KVLD 240136Z 2402/2424 00000KT 3SM RA BR SCT015 BKN040 OVC050
      TEMPO 2402/2403 VRB15G25KT 1SM +TSRA BKN007 OVC030CB
     FM240300 18010KT 6SM BR OVC020
     FM240800 19010KT 5SM BR OVC004
     FM241600 23010G15KT P6SM BKN020
     FM241800 26010KT P6SM BKN030 OVC060=



000
FTUS42 KTAE 240100 AAB
TAFABY
TAF AMD
KABY 240135Z 2402/2424 22009KT P6SM BKN012 BKN070 OVC080
      TEMPO 2402/2404 3SM -RA
     FM240700 21010KT 5SM BR OVC004
     FM241500 23010G20KT P6SM OVC015
     FM241600 23015G20KT P6SM BKN030
     FM241800 24015G20KT P6SM SCT030 BKN080=



000
FTUS42 KTAE 240100 AAB
TAFDHN
TAF AMD
KDHN 240135Z 2402/2424 21015KT P6SM OVC010
     FM240600 20010KT 5SM BR OVC004
     FM241500 25010G20KT P6SM SCT020
     FM241800 26015KT P6SM SKC=



000
FTUS42 KTAE 240000 AAA
TAFVLD
TAF AMD
KVLD 240001Z 2400/2424 00000KT 3SM RA BR SCT015 BKN040 OVC050
      TEMPO 2400/2401 VRB15G25KT 1SM +TSRA BKN007 OVC030CB
     FM240200 18010KT 6SM BR OVC020
     FM240800 19010KT 5SM BR OVC004
     FM241600 23010G15KT P6SM BKN020
     FM241800 26010KT P6SM BKN030 OVC060=



000
FTUS42 KTAE 232300 AAA
TAFABY
TAF AMD
KABY 232356Z 2400/2424 20007KT P6SM -RA BKN023 BKN090 OVC100
     FM240100 20010G20KT P6SM SCT015 BKN040 OVC090
     FM240300 21010G15KT 6SM BR BKN015 OVC020
     FM240700 21010KT 5SM BR OVC004
     FM241500 23010G20KT P6SM OVC015
     FM241600 23015G20KT P6SM BKN030
     FM241800 24015G20KT P6SM SCT030 BKN080=



000
FTUS42 KTAE 232300 AAA
TAFDHN
TAF AMD
KDHN 232350Z 2400/2424 21015G21KT P6SM OVC012
     FM240600 20010KT 5SM BR OVC004
     FM241500 25010G20KT P6SM SCT020
     FM241800 26015KT P6SM SKC=



000
FTUS42 KTAE 232300
TAFTLH
TAF
KTLH 232340Z 2400/2424 22005KT P6SM VCSH BKN015 OVC040
     FM240600 19010KT 5SM BR OVC004
     FM241500 26008KT P6SM OVC015
     FM241600 26008KT P6SM BKN030
     FM241800 26008KT P6SM SCT030 BKN080=



000
FTUS42 KTAE 232300
TAFDHN
TAF
KDHN 232340Z 2400/2424 21015G21KT P6SM OVC012
     FM240300 20011KT 4SM BR OVC007
     FM240600 20010KT 2SM BR OVC004
     FM241500 25013G20KT P6SM SCT015=



000
FTUS42 KTAE 232300
TAFVLD
TAF
KVLD 232340Z 2400/2424 00000KT 1 1/2SM +RA BR SCT024 BKN035 OVC050
      TEMPO 2400/2401 VRB15G25KT 2SM +TSRA BKN007 OVC012CB
     FM240600 19008KT 3SM BR OVC006
     FM241600 23007KT P6SM BKN020=



000
FTUS42 KTAE 232300
TAFABY
TAF
KABY 232340Z 2400/2424 20007KT P6SM -RA BKN023 BKN090 OVC100
     FM240400 20010KT 2SM BR OVC003
     FM241500 24011KT P6SM SCT012=



000
FTUS42 KTAE 232200 AAB
TAFABY
TAF AMD
KABY 232245Z 2323/2418 24010G20KT 3SM RA VCTS SCT030CB OVC070
     FM240400 20010KT 2SM BR OVC003
     FM241500 24011KT P6SM SCT012=



000
FTUS42 KTAE 232200 AAB
TAFABY
TAF AMD
KABY 232245Z 2323/2418 24010G20KT 3SM RA VCTS SCT030CB OVC070
     FM240400 20010KT 2SM BR OVC003
     FM241500 24011KT P6SM SCT012=



000
FTUS42 KTAE 232200 AAC
TAFDHN
TAF AMD
KDHN 232243Z 2323/2418 23010G20KT P6SM SCT015 OVC020
     FM240300 20011KT 4SM BR OVC007
     FM240600 20010KT 2SM BR OVC004
     FM241500 25013G20KT P6SM SCT015=



000
FTUS42 KTAE 232200 AAC
TAFDHN
TAF AMD
KDHN 232243Z 2323/2418 23010G20KT P6SM SCT015 OVC020
     FM240300 20011KT 4SM BR OVC007
     FM240600 20010KT 2SM BR OVC004
     FM241500 25013G20KT P6SM SCT015=



000
FTUS42 KTAE 232200 AAD
TAFTLH
TAF AMD
KTLH 232235Z 2323/2418 24004KT 3SM -TSRA SCT009 BKN040CB OVC060
     FM240300 19010KT 5SM BR OVC010
     FM240800 19008KT 2SM BR OVC003
     FM241200 26008KT P6SM OVC010
     FM241600 26008KT P6SM BKN030=



000
FTUS42 KTAE 232100 AAC
TAFTLH
TAF AMD
KTLH 232120Z 2321/2418 17012G18KT 5SM -RA BR VCTS OVC007CB
     FM240300 19010KT 5SM BR OVC010
     FM240800 19008KT 2SM BR OVC003
     FM241200 26008KT P6SM OVC010
     FM241600 26008KT P6SM BKN030=



000
FTUS42 KTAE 232100 AAC
TAFTLH
TAF AMD
KTLH 232120Z 2321/2418 17012G18KT 5SM -RA BR VCTS OVC007CB
     FM240300 19010KT 5SM BR OVC010
     FM240800 19008KT 2SM BR OVC003
     FM241200 26008KT P6SM OVC010
     FM241600 26008KT P6SM BKN030=



000
FTUS42 KTAE 232000 AAB
TAFDHN
TAF AMD
KDHN 232003Z 2320/2418 26015G25KT 4SM -RA BR VCTS SCT015 OVC030CB
     FM240000 20011KT 4SM BR OVC007
     FM240600 20010KT 2SM BR OVC004
     FM241500 25013G20KT P6SM SCT015=



000
FTUS42 KTAE 231900 AAA
TAFVLD
TAF AMD
KVLD 231945Z 2320/2418 17010KT P6SM SCT006 BKN012 OVC020
     FM232200 18012G20KT 4SM -RA BR VCTS BKN012CB OVC025
      TEMPO 2323/2401 VRB15G25KT 2SM +TSRA BKN007 OVC012CB
     FM240600 19008KT 3SM BR OVC006
     FM241600 23007KT P6SM BKN020=



000
FTUS42 KTAE 231900 AAA
TAFABY
TAF AMD
KABY 231943Z 2320/2418 18012G20KT 5SM -RA BR VCTS OVC014CB
      TEMPO 2321/2323 VRB20G30KT 2SM +TSRA
     FM240400 20010KT 2SM BR OVC003
     FM241500 24011KT P6SM SCT012=



000
FTUS42 KTAE 231900 AAB
TAFTLH
TAF AMD
KTLH 231933Z 2320/2418 16010G18KT 2SM BR OVC003
     FM232000 17012G18KT 2SM -TSRA BR BKN004 OVC015CB
      TEMPO 2321/2323 VRB20G30KT 2SM +TSRA OVC020CB
     FM240200 19010KT 4SM BR OVC003
     FM241500 26008KT P6SM BKN035=



000
FTUS42 KTAE 231900 AAA
TAFTLH
TAF AMD
KTLH 231905Z 2319/2418 16010G18KT 3SM BR BKN006 OVC012
     FM232100 17012G18KT 2SM -TSRA BR BKN012 OVC020CB
      TEMPO 2322/2401 VRB20G30KT 2SM +TSRA BKN020CB
     FM240200 19010KT 4SM BR OVC003
     FM241500 26008KT P6SM BKN035=



000
FTUS42 KTAE 231800 AAA
TAFDHN
TAF AMD
KDHN 231848Z 2319/2418 16015G25KT 4SM -TSRA SCT015 OVC025CB
      TEMPO 2319/2322 VRB20G30KT 2SM +TSRA
     FM240000 20011KT 4SM BR OVC007
     FM240600 20010KT 2SM BR OVC004
     FM241500 25013G20KT P6SM SCT015=



000
FTUS42 KTAE 231700 RRA
TAFDHN
TAF
KDHN 231745Z 2318/2418 16012G25KT 4SM -TSRA BKN015 OVC020CB
     FM232000 18013G23KT 4SM TSRA BKN015 OVC035CB
      TEMPO 2320/2323 VRB20G30KT 2SM +TSRA
     FM240100 20011KT 4SM BR OVC007
     FM240600 20010KT 2SM BR OVC004
     FM241500 25013G20KT P6SM SCT015=



000
FTUS42 KTAE 231700 RRA
TAFVLD
TAF
KVLD 231745Z 2318/2418 17010KT P6SM SCT006 BKN012 OVC020
     FM232200 18012G20KT P6SM VCTS BKN012CB OVC025
     FM240100 19012G18KT 4SM -TSRA BKN015CB BKN030
      TEMPO 2402/2404 VRB15G25KT 2SM +TSRA BKN007 OVC012CB
     FM240600 19008KT 3SM BR OVC006
     FM241600 23007KT P6SM BKN020=



000
FTUS42 KTAE 231700 RRA
TAFTLH
TAF
KTLH 231745Z 2318/2418 16010G18KT 3SM BR BKN006 OVC012
     FM231900 17012G18KT 2SM -TSRA BR BKN012 OVC020CB
     FM232300 18012G20KT 4SM TSRA BKN015CB OVC030
      TEMPO 2400/2402 VRB20G30KT 2SM +TSRA BKN020CB
     FM240300 19010KT 4SM BR OVC003
     FM241500 26008KT P6SM BKN035=



000
FTUS42 KTAE 231700 RRA
TAFABY
TAF
KABY 231745Z 2318/2418 16011G15KT 5SM BR BKN012 OVC020
     FM232100 18012G20KT 5SM BR VCTS SCT012 OVC030CB
      TEMPO 2323/2402 VRB20G30KT 2SM +TSRA
     FM240400 20010KT 2SM BR OVC003
     FM241500 24011KT P6SM SCT012=



000
FTUS42 KTAE 231400 AAA
TAFTLH
TAF AMD
KTLH 231404Z 2314/2412 15012G18KT 3SM -RA BR OVC004
     FM232100 18012G20KT 4SM TSRA BKN030CB BKN100
      TEMPO 2321/2324 VRB20G30KT 2SM +TSRA BKN025CB
     FM240300 19010KT P6SM VCSH OVC003=



000
FTUS42 KTAE 231100
TAFVLD
TAF
KVLD 231133Z 2312/2412 VRB03KT P6SM -RA BKN004 BKN008 OVC015
     FM231500 17012G18KT P6SM VCSH BKN007
     FM232100 18012G18KT P6SM VCTS BKN015CB BKN100
      TEMPO 2400/2403 VRB15G25KT 2SM +TSRA BKN007 OVC015CB
     FM240400 19009KT 3SM RA BR OVC003=



000
FTUS42 KTAE 231100
TAFTLH
TAF
KTLH 231133Z 2312/2412 14011G18KT 5SM RA BR OVC008
     FM232100 18012G20KT 4SM TSRA BKN030CB BKN100
      TEMPO 2321/2324 VRB20G30KT 2SM +TSRA BKN025CB
     FM240300 19010KT P6SM VCSH OVC003=



000
FTUS42 KTAE 231100
TAFABY
TAF
KABY 231133Z 2312/2412 09006KT P6SM -RA OVC006
     FM231600 16011G15KT 5SM RA BKN006 BKN015
     FM231800 18012G20KT P6SM VCTS BKN015CB BKN030
      TEMPO 2320/2323 VRB20G30KT 2SM +TSRA
     FM240100 20011KT P6SM OVC002=



000
FTUS42 KTAE 231100
TAFDHN
TAF
KDHN 231133Z 2312/2412 10008KT 4SM -RA BR OVC005
     FM231500 16010G15KT 6SM -RA OVC007
     FM231800 18013G23KT 4SM TSRA BKN025CB
      TEMPO 2318/2321 VRB20G30KT 2SM +TSRA
     FM240000 20011KT P6SM OVC007=



    US Dept of Commerce
    National Oceanic and Atmospheric Administration
    National Weather Service
    1325 East West Highway
    Silver Spring, MD 20910
    Page Author: NWS Internet Services Team
Disclaimer
Information Quality
Credits
Glossary
Privacy Policy
Freedom of Information Act (FOIA)
About Us
Career Opportunities